sensor_id;sensor_type;location;lat;lon;timestamp;P1;durP1;ratioP1;P2;durP2;ratioP2
7693;SDS011;3889;48.162;11.510;2023-04-03T00:01:11;11.57;;;10.47;;
7693;SDS011;3889;48.162;11.510;2023-04-03T00:03:39;11.55;;;10.57;;
7693;SDS011;3889;48.162;11.510;2023-04-03T00:06:08;11.25;;;10.23;;
7693;SDS011;3889;48.162;11.510;2023-04-03T00:08:37;11.40;;;10.35;;
7693;SDS011;3889;48.162;11.510;2023-04-03T00:11:06;11.15;;;10.25;;
7693;SDS011;3889;48.162;11.510;2023-04-03T00:13:36;12.43;;;10.23;;
7693;SDS011;3889;48.162;11.510;2023-04-03T00:16:05;10.85;;;9.85;;
7693;SDS011;3889;48.162;11.510;2023-04-03T00:18:33;10.82;;;9.82;;
7693;SDS011;3889;48.162;11.510;2023-04-03T00:21:02;11.25;;;10.15;;
7693;SDS011;3889;48.162;11.510;2023-04-03T00:23:30;10.88;;;9.95;;
7693;SDS011;3889;48.162;11.510;2023-04-03T00:25:59;10.90;;;9.80;;
7693;SDS011;3889;48.162;11.510;2023-04-03T00:28:27;10.47;;;9.53;;
7693;SDS011;3889;48.162;11.510;2023-04-03T00:30:56;10.57;;;9.68;;
7693;SDS011;3889;48.162;11.510;2023-04-03T00:33:24;10.20;;;9.20;;
7693;SDS011;3889;48.162;11.510;2023-04-03T00:35:52;9.88;;;8.98;;
7693;SDS011;3889;48.162;11.510;2023-04-03T00:38:20;9.27;;;8.48;;
7693;SDS011;3889;48.162;11.510;2023-04-03T00:40:48;10.30;;;9.30;;
7693;SDS011;3889;48.162;11.510;2023-04-03T00:43:17;10.18;;;9.25;;
7693;SDS011;3889;48.162;11.510;2023-04-03T00:45:47;9.63;;;8.82;;
7693;SDS011;3889;48.162;11.510;2023-04-03T00:48:18;8.87;;;8.07;;
7693;SDS011;3889;48.162;11.510;2023-04-03T00:50:48;9.25;;;8.38;;
7693;SDS011;3889;48.162;11.510;2023-04-03T00:53:17;9.25;;;8.45;;
7693;SDS011;3889;48.162;11.510;2023-04-03T00:55:49;8.70;;;7.90;;
7693;SDS011;3889;48.162;11.510;2023-04-03T00:58:18;9.35;;;8.55;;
7693;SDS011;3889;48.162;11.510;2023-04-03T01:00:50;9.40;;;8.52;;
7693;SDS011;3889;48.162;11.510;2023-04-03T01:03:24;9.53;;;8.73;;
7693;SDS011;3889;48.162;11.510;2023-04-03T01:05:52;9.88;;;9.07;;
7693;SDS011;3889;48.162;11.510;2023-04-03T01:08:20;9.45;;;8.63;;
7693;SDS011;3889;48.162;11.510;2023-04-03T01:10:48;9.85;;;8.98;;
7693;SDS011;3889;48.162;11.510;2023-04-03T01:13:17;9.80;;;9.00;;
7693;SDS011;3889;48.162;11.510;2023-04-03T01:15:47;9.00;;;8.20;;
7693;SDS011;3889;48.162;11.510;2023-04-03T01:18:15;9.77;;;8.80;;
7693;SDS011;3889;48.162;11.510;2023-04-03T01:23:43;9.60;;;8.70;;
7693;SDS011;3889;48.162;11.510;2023-04-03T01:26:28;9.23;;;8.43;;
7693;SDS011;3889;48.162;11.510;2023-04-03T01:28:58;9.25;;;8.40;;
7693;SDS011;3889;48.162;11.510;2023-04-03T01:31:27;8.80;;;8.00;;
7693;SDS011;3889;48.162;11.510;2023-04-03T01:33:59;9.13;;;8.32;;
7693;SDS011;3889;48.162;11.510;2023-04-03T01:36:28;9.20;;;8.40;;
7693;SDS011;3889;48.162;11.510;2023-04-03T01:38:58;8.70;;;8.00;;
7693;SDS011;3889;48.162;11.510;2023-04-03T01:41:27;8.93;;;8.13;;
7693;SDS011;3889;48.162;11.510;2023-04-03T01:43:55;9.15;;;8.35;;
7693;SDS011;3889;48.162;11.510;2023-04-03T01:46:23;8.98;;;8.18;;
7693;SDS011;3889;48.162;11.510;2023-04-03T01:48:51;9.18;;;8.35;;
7693;SDS011;3889;48.162;11.510;2023-04-03T01:51:21;9.55;;;8.48;;
7693;SDS011;3889;48.162;11.510;2023-04-03T01:53:49;8.57;;;7.88;;
7693;SDS011;3889;48.162;11.510;2023-04-03T01:56:17;8.93;;;8.23;;
7693;SDS011;3889;48.162;11.510;2023-04-03T01:58:46;8.80;;;8.00;;
7693;SDS011;3889;48.162;11.510;2023-04-03T02:01:14;9.00;;;8.30;;
7693;SDS011;3889;48.162;11.510;2023-04-03T02:03:42;8.85;;;8.05;;
7693;SDS011;3889;48.162;11.510;2023-04-03T02:06:10;8.38;;;7.63;;
7693;SDS011;3889;48.162;11.510;2023-04-03T02:08:39;8.60;;;7.90;;
7693;SDS011;3889;48.162;11.510;2023-04-03T02:11:07;8.63;;;7.93;;
7693;SDS011;3889;48.162;11.510;2023-04-03T02:13:35;8.13;;;7.40;;
7693;SDS011;3889;48.162;11.510;2023-04-03T02:16:07;8.45;;;7.68;;
7693;SDS011;3889;48.162;11.510;2023-04-03T02:18:36;8.50;;;7.70;;
7693;SDS011;3889;48.162;11.510;2023-04-03T02:21:04;8.27;;;7.57;;
7693;SDS011;3889;48.162;11.510;2023-04-03T02:23:32;8.05;;;7.35;;
7693;SDS011;3889;48.162;11.510;2023-04-03T02:26:07;7.68;;;6.97;;
7693;SDS011;3889;48.162;11.510;2023-04-03T02:28:37;7.50;;;6.90;;
7693;SDS011;3889;48.162;11.510;2023-04-03T02:31:05;8.30;;;7.50;;
7693;SDS011;3889;48.162;11.510;2023-04-03T02:33:34;8.00;;;7.30;;
7693;SDS011;3889;48.162;11.510;2023-04-03T02:36:03;7.67;;;7.07;;
7693;SDS011;3889;48.162;11.510;2023-04-03T02:38:32;8.05;;;7.35;;
7693;SDS011;3889;48.162;11.510;2023-04-03T02:41:01;7.80;;;7.10;;
7693;SDS011;3889;48.162;11.510;2023-04-03T02:43:30;7.65;;;6.93;;
7693;SDS011;3889;48.162;11.510;2023-04-03T02:45:58;7.28;;;6.68;;
7693;SDS011;3889;48.162;11.510;2023-04-03T02:48:26;7.00;;;6.40;;
7693;SDS011;3889;48.162;11.510;2023-04-03T02:50:54;7.32;;;6.70;;
7693;SDS011;3889;48.162;11.510;2023-04-03T02:53:22;6.65;;;6.10;;
7693;SDS011;3889;48.162;11.510;2023-04-03T02:55:50;10.88;;;7.03;;
7693;SDS011;3889;48.162;11.510;2023-04-03T02:58:18;11.48;;;8.30;;
7693;SDS011;3889;48.162;11.510;2023-04-03T03:00:47;7.25;;;6.53;;
7693;SDS011;3889;48.162;11.510;2023-04-03T03:03:15;6.60;;;6.00;;
7693;SDS011;3889;48.162;11.510;2023-04-03T03:05:43;7.10;;;5.88;;
7693;SDS011;3889;48.162;11.510;2023-04-03T03:08:11;6.43;;;5.93;;
7693;SDS011;3889;48.162;11.510;2023-04-03T03:10:38;6.10;;;5.50;;
7693;SDS011;3889;48.162;11.510;2023-04-03T03:13:06;6.10;;;5.60;;
7693;SDS011;3889;48.162;11.510;2023-04-03T03:15:34;5.87;;;5.37;;
7693;SDS011;3889;48.162;11.510;2023-04-03T03:18:03;6.00;;;5.50;;
7693;SDS011;3889;48.162;11.510;2023-04-03T03:20:31;5.40;;;4.90;;
7693;SDS011;3889;48.162;11.510;2023-04-03T03:22:59;5.68;;;5.18;;
7693;SDS011;3889;48.162;11.510;2023-04-03T03:25:27;6.35;;;4.93;;
7693;SDS011;3889;48.162;11.510;2023-04-03T03:27:55;6.00;;;5.40;;
7693;SDS011;3889;48.162;11.510;2023-04-03T03:30:23;5.80;;;5.30;;
7693;SDS011;3889;48.162;11.510;2023-04-03T03:32:51;5.65;;;5.15;;
7693;SDS011;3889;48.162;11.510;2023-04-03T03:35:20;5.30;;;4.80;;
7693;SDS011;3889;48.162;11.510;2023-04-03T03:37:48;5.30;;;4.90;;
7693;SDS011;3889;48.162;11.510;2023-04-03T03:40:16;5.72;;;5.13;;
7693;SDS011;3889;48.162;11.510;2023-04-03T03:42:44;5.10;;;4.70;;
7693;SDS011;3889;48.162;11.510;2023-04-03T03:45:12;5.13;;;4.70;;
7693;SDS011;3889;48.162;11.510;2023-04-03T03:47:40;5.55;;;5.05;;
7693;SDS011;3889;48.162;11.510;2023-04-03T03:50:08;5.65;;;5.18;;
7693;SDS011;3889;48.162;11.510;2023-04-03T03:52:37;5.00;;;4.60;;
7693;SDS011;3889;48.162;11.510;2023-04-03T03:55:06;5.20;;;4.70;;
7693;SDS011;3889;48.162;11.510;2023-04-03T03:57:34;5.32;;;4.82;;
7693;SDS011;3889;48.162;11.510;2023-04-03T04:00:02;5.28;;;4.82;;
7693;SDS011;3889;48.162;11.510;2023-04-03T04:02:31;5.00;;;4.60;;
7693;SDS011;3889;48.162;11.510;2023-04-03T04:04:59;5.22;;;4.72;;
7693;SDS011;3889;48.162;11.510;2023-04-03T04:07:27;5.00;;;4.60;;
7693;SDS011;3889;48.162;11.510;2023-04-03T04:09:56;5.30;;;4.80;;
7693;SDS011;3889;48.162;11.510;2023-04-03T04:12:25;5.23;;;4.83;;
7693;SDS011;3889;48.162;11.510;2023-04-03T04:14:53;5.20;;;4.80;;
7693;SDS011;3889;48.162;11.510;2023-04-03T04:17:20;5.28;;;4.80;;
7693;SDS011;3889;48.162;11.510;2023-04-03T04:19:50;5.60;;;5.10;;
7693;SDS011;3889;48.162;11.510;2023-04-03T04:22:23;5.10;;;4.63;;
7693;SDS011;3889;48.162;11.510;2023-04-03T04:24:51;4.73;;;4.33;;
7693;SDS011;3889;48.162;11.510;2023-04-03T04:27:20;5.22;;;4.72;;
7693;SDS011;3889;48.162;11.510;2023-04-03T04:29:48;5.30;;;4.80;;
7693;SDS011;3889;48.162;11.510;2023-04-03T04:32:16;5.35;;;4.85;;
7693;SDS011;3889;48.162;11.510;2023-04-03T04:34:44;4.78;;;4.40;;
7693;SDS011;3889;48.162;11.510;2023-04-03T04:37:11;5.17;;;4.50;;
7693;SDS011;3889;48.162;11.510;2023-04-03T04:39:39;5.40;;;4.47;;
7693;SDS011;3889;48.162;11.510;2023-04-03T04:42:07;5.10;;;4.68;;
7693;SDS011;3889;48.162;11.510;2023-04-03T04:44:43;5.07;;;4.68;;
7693;SDS011;3889;48.162;11.510;2023-04-03T04:47:11;5.20;;;4.70;;
7693;SDS011;3889;48.162;11.510;2023-04-03T04:49:39;4.80;;;4.40;;
7693;SDS011;3889;48.162;11.510;2023-04-03T04:52:07;5.63;;;5.13;;
7693;SDS011;3889;48.162;11.510;2023-04-03T04:54:34;5.57;;;5.07;;
7693;SDS011;3889;48.162;11.510;2023-04-03T04:57:02;5.43;;;4.88;;
7693;SDS011;3889;48.162;11.510;2023-04-03T04:59:30;5.20;;;4.70;;
7693;SDS011;3889;48.162;11.510;2023-04-03T05:01:59;5.50;;;5.00;;
7693;SDS011;3889;48.162;11.510;2023-04-03T05:04:27;5.63;;;5.13;;
7693;SDS011;3889;48.162;11.510;2023-04-03T05:06:55;5.25;;;4.75;;
7693;SDS011;3889;48.162;11.510;2023-04-03T05:09:23;5.43;;;4.93;;
7693;SDS011;3889;48.162;11.510;2023-04-03T05:11:51;5.80;;;5.30;;
7693;SDS011;3889;48.162;11.510;2023-04-03T05:14:19;5.70;;;5.20;;
7693;SDS011;3889;48.162;11.510;2023-04-03T05:16:47;5.20;;;4.78;;
7693;SDS011;3889;48.162;11.510;2023-04-03T05:19:20;5.85;;;5.35;;
7693;SDS011;3889;48.162;11.510;2023-04-03T05:21:48;5.60;;;5.10;;
7693;SDS011;3889;48.162;11.510;2023-04-03T05:24:16;5.85;;;5.35;;
7693;SDS011;3889;48.162;11.510;2023-04-03T05:26:44;5.20;;;4.70;;
7693;SDS011;3889;48.162;11.510;2023-04-03T05:29:12;5.47;;;4.97;;
7693;SDS011;3889;48.162;11.510;2023-04-03T05:31:40;5.40;;;4.90;;
7693;SDS011;3889;48.162;11.510;2023-04-03T05:34:07;5.80;;;5.30;;
7693;SDS011;3889;48.162;11.510;2023-04-03T05:36:37;6.10;;;5.50;;
7693;SDS011;3889;48.162;11.510;2023-04-03T05:39:05;5.60;;;5.07;;
7693;SDS011;3889;48.162;11.510;2023-04-03T05:41:32;5.32;;;4.93;;
7693;SDS011;3889;48.162;11.510;2023-04-03T05:44:00;5.40;;;4.90;;
7693;SDS011;3889;48.162;11.510;2023-04-03T05:46:28;5.50;;;5.00;;
7693;SDS011;3889;48.162;11.510;2023-04-03T05:48:56;5.40;;;4.90;;
7693;SDS011;3889;48.162;11.510;2023-04-03T05:51:25;5.73;;;5.23;;
7693;SDS011;3889;48.162;11.510;2023-04-03T05:53:59;6.22;;;5.63;;
7693;SDS011;3889;48.162;11.510;2023-04-03T05:56:30;5.85;;;5.28;;
7693;SDS011;3889;48.162;11.510;2023-04-03T05:58:58;6.07;;;5.57;;
7693;SDS011;3889;48.162;11.510;2023-04-03T06:01:25;5.85;;;5.35;;
7693;SDS011;3889;48.162;11.510;2023-04-03T06:03:54;5.95;;;5.35;;
7693;SDS011;3889;48.162;11.510;2023-04-03T06:06:22;6.80;;;6.20;;
7693;SDS011;3889;48.162;11.510;2023-04-03T06:08:50;6.20;;;5.60;;
7693;SDS011;3889;48.162;11.510;2023-04-03T06:11:19;6.38;;;5.75;;
7693;SDS011;3889;48.162;11.510;2023-04-03T06:13:48;6.13;;;5.53;;
7693;SDS011;3889;48.162;11.510;2023-04-03T06:16:16;6.13;;;5.55;;
7693;SDS011;3889;48.162;11.510;2023-04-03T06:18:45;6.07;;;5.47;;
7693;SDS011;3889;48.162;11.510;2023-04-03T06:21:13;6.10;;;5.50;;
7693;SDS011;3889;48.162;11.510;2023-04-03T06:23:41;6.37;;;5.77;;
7693;SDS011;3889;48.162;11.510;2023-04-03T06:26:08;6.07;;;5.47;;
7693;SDS011;3889;48.162;11.510;2023-04-03T06:28:38;5.65;;;5.15;;
7693;SDS011;3889;48.162;11.510;2023-04-03T06:31:05;6.15;;;5.55;;
7693;SDS011;3889;48.162;11.510;2023-04-03T06:33:33;5.97;;;5.47;;
7693;SDS011;3889;48.162;11.510;2023-04-03T06:36:03;6.03;;;5.43;;
7693;SDS011;3889;48.162;11.510;2023-04-03T06:38:32;6.78;;;6.07;;
7693;SDS011;3889;48.162;11.510;2023-04-03T06:41:00;6.40;;;5.80;;
7693;SDS011;3889;48.162;11.510;2023-04-03T06:43:28;6.83;;;5.30;;
7693;SDS011;3889;48.162;11.510;2023-04-03T06:45:58;6.63;;;5.78;;
7693;SDS011;3889;48.162;11.510;2023-04-03T06:48:26;6.35;;;5.72;;
7693;SDS011;3889;48.162;11.510;2023-04-03T06:50:54;5.93;;;5.43;;
7693;SDS011;3889;48.162;11.510;2023-04-03T06:53:22;6.75;;;6.05;;
7693;SDS011;3889;48.162;11.510;2023-04-03T06:55:50;5.68;;;5.18;;
7693;SDS011;3889;48.162;11.510;2023-04-03T06:58:18;6.68;;;5.30;;
7693;SDS011;3889;48.162;11.510;2023-04-03T07:00:48;9.35;;;5.88;;
7693;SDS011;3889;48.162;11.510;2023-04-03T07:03:17;6.68;;;6.05;;
7693;SDS011;3889;48.162;11.510;2023-04-03T07:05:45;6.43;;;5.72;;
7693;SDS011;3889;48.162;11.510;2023-04-03T07:08:13;5.55;;;4.93;;
7693;SDS011;3889;48.162;11.510;2023-04-03T07:10:40;5.40;;;4.90;;
7693;SDS011;3889;48.162;11.510;2023-04-03T07:13:08;6.20;;;5.30;;
7693;SDS011;3889;48.162;11.510;2023-04-03T07:15:37;5.80;;;5.28;;
7693;SDS011;3889;48.162;11.510;2023-04-03T07:18:05;5.97;;;5.47;;
7693;SDS011;3889;48.162;11.510;2023-04-03T07:20:34;5.30;;;4.80;;
7693;SDS011;3889;48.162;11.510;2023-04-03T07:23:02;5.30;;;4.80;;
7693;SDS011;3889;48.162;11.510;2023-04-03T07:25:30;6.15;;;5.60;;
7693;SDS011;3889;48.162;11.510;2023-04-03T07:27:59;5.70;;;5.20;;
7693;SDS011;3889;48.162;11.510;2023-04-03T07:30:27;5.63;;;5.13;;
7693;SDS011;3889;48.162;11.510;2023-04-03T07:32:55;6.22;;;5.63;;
7693;SDS011;3889;48.162;11.510;2023-04-03T07:35:23;6.07;;;5.47;;
7693;SDS011;3889;48.162;11.510;2023-04-03T07:37:53;5.57;;;5.05;;
7693;SDS011;3889;48.162;11.510;2023-04-03T07:40:21;7.28;;;6.57;;
7693;SDS011;3889;48.162;11.510;2023-04-03T07:42:49;6.20;;;5.65;;
7693;SDS011;3889;48.162;11.510;2023-04-03T07:45:17;6.03;;;5.53;;
7693;SDS011;3889;48.162;11.510;2023-04-03T07:47:45;5.93;;;5.43;;
7693;SDS011;3889;48.162;11.510;2023-04-03T07:50:14;6.18;;;5.63;;
7693;SDS011;3889;48.162;11.510;2023-04-03T07:52:42;6.28;;;5.32;;
7693;SDS011;3889;48.162;11.510;2023-04-03T07:55:11;6.20;;;5.60;;
7693;SDS011;3889;48.162;11.510;2023-04-03T07:57:39;6.25;;;5.75;;
7693;SDS011;3889;48.162;11.510;2023-04-03T08:00:09;7.67;;;5.90;;
7693;SDS011;3889;48.162;11.510;2023-04-03T08:02:38;6.13;;;5.57;;
7693;SDS011;3889;48.162;11.510;2023-04-03T08:05:06;6.20;;;5.60;;
7693;SDS011;3889;48.162;11.510;2023-04-03T08:07:36;6.38;;;5.78;;
7693;SDS011;3889;48.162;11.510;2023-04-03T08:10:04;6.50;;;5.90;;
7693;SDS011;3889;48.162;11.510;2023-04-03T08:12:34;6.63;;;5.65;;
7693;SDS011;3889;48.162;11.510;2023-04-03T08:15:03;6.15;;;5.65;;
7693;SDS011;3889;48.162;11.510;2023-04-03T08:17:32;6.30;;;5.70;;
7693;SDS011;3889;48.162;11.510;2023-04-03T08:20:00;6.80;;;6.10;;
7693;SDS011;3889;48.162;11.510;2023-04-03T08:22:29;6.78;;;6.13;;
7693;SDS011;3889;48.162;11.510;2023-04-03T08:24:57;7.07;;;6.33;;
7693;SDS011;3889;48.162;11.510;2023-04-03T08:27:25;7.28;;;6.10;;
7693;SDS011;3889;48.162;11.510;2023-04-03T08:29:55;6.77;;;6.17;;
7693;SDS011;3889;48.162;11.510;2023-04-03T08:32:23;6.93;;;6.23;;
7693;SDS011;3889;48.162;11.510;2023-04-03T08:34:51;9.95;;;6.40;;
7693;SDS011;3889;48.162;11.510;2023-04-03T08:37:19;7.30;;;6.18;;
7693;SDS011;3889;48.162;11.510;2023-04-03T08:39:47;8.07;;;6.18;;
7693;SDS011;3889;48.162;11.510;2023-04-03T08:42:18;6.83;;;6.13;;
7693;SDS011;3889;48.162;11.510;2023-04-03T08:45:03;7.78;;;6.40;;
7693;SDS011;3889;48.162;11.510;2023-04-03T08:47:37;6.80;;;5.70;;
7693;SDS011;3889;48.162;11.510;2023-04-03T08:50:10;6.90;;;5.70;;
7693;SDS011;3889;48.162;11.510;2023-04-03T08:52:44;6.05;;;5.45;;
7693;SDS011;3889;48.162;11.510;2023-04-03T08:55:19;6.93;;;5.60;;
7693;SDS011;3889;48.162;11.510;2023-04-03T08:57:52;6.67;;;5.77;;
7693;SDS011;3889;48.162;11.510;2023-04-03T09:00:30;6.22;;;5.63;;
7693;SDS011;3889;48.162;11.510;2023-04-03T09:03:10;6.07;;;5.47;;
7693;SDS011;3889;48.162;11.510;2023-04-03T09:05:41;6.20;;;5.60;;
7693;SDS011;3889;48.162;11.510;2023-04-03T09:08:23;6.32;;;5.50;;
7693;SDS011;3889;48.162;11.510;2023-04-03T09:10:58;5.68;;;5.18;;
7693;SDS011;3889;48.162;11.510;2023-04-03T09:13:35;6.68;;;5.00;;
7693;SDS011;3889;48.162;11.510;2023-04-03T09:16:15;5.90;;;5.00;;
7693;SDS011;3889;48.162;11.510;2023-04-03T09:18:48;6.10;;;4.90;;
7693;SDS011;3889;48.162;11.510;2023-04-03T09:21:24;6.03;;;5.40;;
7693;SDS011;3889;48.162;11.510;2023-04-03T09:23:55;6.18;;;5.57;;
7693;SDS011;3889;48.162;11.510;2023-04-03T09:26:26;6.20;;;4.90;;
7693;SDS011;3889;48.162;11.510;2023-04-03T09:28:59;5.95;;;5.35;;
7693;SDS011;3889;48.162;11.510;2023-04-03T09:31:37;5.75;;;5.00;;
7693;SDS011;3889;48.162;11.510;2023-04-03T09:34:10;5.30;;;4.72;;
7693;SDS011;3889;48.162;11.510;2023-04-03T09:36:48;6.28;;;5.20;;
7693;SDS011;3889;48.162;11.510;2023-04-03T09:39:18;5.55;;;4.97;;
7693;SDS011;3889;48.162;11.510;2023-04-03T09:41:58;5.20;;;4.80;;
7693;SDS011;3889;48.162;11.510;2023-04-03T09:44:28;5.40;;;4.88;;
7693;SDS011;3889;48.162;11.510;2023-04-03T09:46:59;6.43;;;5.10;;
7693;SDS011;3889;48.162;11.510;2023-04-03T09:49:44;5.30;;;4.80;;
7693;SDS011;3889;48.162;11.510;2023-04-03T09:52:18;5.03;;;4.57;;
7693;SDS011;3889;48.162;11.510;2023-04-03T09:54:47;4.95;;;4.53;;
7693;SDS011;3889;48.162;11.510;2023-04-03T09:57:15;5.13;;;4.50;;
7693;SDS011;3889;48.162;11.510;2023-04-03T09:59:45;6.10;;;5.47;;
7693;SDS011;3889;48.162;11.510;2023-04-03T10:05:02;5.90;;;4.80;;
7693;SDS011;3889;48.162;11.510;2023-04-03T10:07:36;6.40;;;5.10;;
7693;SDS011;3889;48.162;11.510;2023-04-03T10:10:16;5.50;;;5.00;;
7693;SDS011;3889;48.162;11.510;2023-04-03T10:12:46;5.72;;;5.22;;
7693;SDS011;3889;48.162;11.510;2023-04-03T10:15:15;5.80;;;4.60;;
7693;SDS011;3889;48.162;11.510;2023-04-03T10:17:50;5.60;;;5.00;;
7693;SDS011;3889;48.162;11.510;2023-04-03T10:20:26;5.10;;;4.55;;
7693;SDS011;3889;48.162;11.510;2023-04-03T10:23:09;4.70;;;4.30;;
7693;SDS011;3889;48.162;11.510;2023-04-03T10:25:48;5.75;;;4.82;;
7693;SDS011;3889;48.162;11.510;2023-04-03T10:28:27;5.55;;;4.90;;
7693;SDS011;3889;48.162;11.510;2023-04-03T10:31:01;5.60;;;5.10;;
7693;SDS011;3889;48.162;11.510;2023-04-03T10:33:46;5.57;;;4.70;;
7693;SDS011;3889;48.162;11.510;2023-04-03T10:36:29;5.22;;;4.40;;
7693;SDS011;3889;48.162;11.510;2023-04-03T10:39:08;4.90;;;4.40;;
7693;SDS011;3889;48.162;11.510;2023-04-03T10:41:46;5.10;;;4.60;;
7693;SDS011;3889;48.162;11.510;2023-04-03T10:44:45;7.45;;;5.05;;
7693;SDS011;3889;48.162;11.510;2023-04-03T10:47:29;4.72;;;4.22;;
7693;SDS011;3889;48.162;11.510;2023-04-03T10:50:12;5.13;;;4.05;;
7693;SDS011;3889;48.162;11.510;2023-04-03T10:52:52;4.73;;;4.23;;
7693;SDS011;3889;48.162;11.510;2023-04-03T10:55:27;5.27;;;3.60;;
7693;SDS011;3889;48.162;11.510;2023-04-03T10:58:01;4.03;;;3.60;;
7693;SDS011;3889;48.162;11.510;2023-04-03T11:00:34;4.47;;;3.80;;
7693;SDS011;3889;48.162;11.510;2023-04-03T11:03:06;4.88;;;3.55;;
7693;SDS011;3889;48.162;11.510;2023-04-03T11:05:42;4.63;;;3.60;;
7693;SDS011;3889;48.162;11.510;2023-04-03T11:08:13;4.00;;;3.60;;
7693;SDS011;3889;48.162;11.510;2023-04-03T11:10:55;5.53;;;3.60;;
7693;SDS011;3889;48.162;11.510;2023-04-03T11:13:26;4.68;;;3.53;;
7693;SDS011;3889;48.162;11.510;2023-04-03T11:16:00;5.40;;;3.90;;
7693;SDS011;3889;48.162;11.510;2023-04-03T11:18:31;5.15;;;3.50;;
7693;SDS011;3889;48.162;11.510;2023-04-03T11:21:06;4.90;;;3.70;;
7693;SDS011;3889;48.162;11.510;2023-04-03T11:23:39;4.80;;;3.70;;
7693;SDS011;3889;48.162;11.510;2023-04-03T11:26:15;3.92;;;3.50;;
7693;SDS011;3889;48.162;11.510;2023-04-03T11:28:46;5.10;;;4.05;;
7693;SDS011;3889;48.162;11.510;2023-04-03T11:31:24;5.32;;;3.60;;
7693;SDS011;3889;48.162;11.510;2023-04-03T11:34:03;5.07;;;3.85;;
7693;SDS011;3889;48.162;11.510;2023-04-03T11:36:44;4.33;;;3.93;;
7693;SDS011;3889;48.162;11.510;2023-04-03T11:39:18;4.50;;;3.70;;
7693;SDS011;3889;48.162;11.510;2023-04-03T11:41:49;5.05;;;4.07;;
7693;SDS011;3889;48.162;11.510;2023-04-03T11:44:34;4.95;;;3.30;;
7693;SDS011;3889;48.162;11.510;2023-04-03T11:47:04;3.45;;;3.00;;
7693;SDS011;3889;48.162;11.510;2023-04-03T11:49:53;4.72;;;3.10;;
7693;SDS011;3889;48.162;11.510;2023-04-03T11:55:42;2.97;;;2.60;;
7693;SDS011;3889;48.162;11.510;2023-04-03T11:58:21;3.65;;;2.90;;
7693;SDS011;3889;48.162;11.510;2023-04-03T12:00:52;3.33;;;2.60;;
7693;SDS011;3889;48.162;11.510;2023-04-03T12:09:58;3.35;;;2.40;;
7693;SDS011;3889;48.162;11.510;2023-04-03T12:12:35;3.75;;;2.70;;
7693;SDS011;3889;48.162;11.510;2023-04-03T12:15:17;4.13;;;2.53;;
7693;SDS011;3889;48.162;11.510;2023-04-03T12:17:48;4.50;;;2.58;;
7693;SDS011;3889;48.162;11.510;2023-04-03T12:23:24;3.60;;;2.50;;
7693;SDS011;3889;48.162;11.510;2023-04-03T12:26:05;2.38;;;2.00;;
7693;SDS011;3889;48.162;11.510;2023-04-03T12:28:48;7.28;;;4.50;;
7693;SDS011;3889;48.162;11.510;2023-04-03T12:31:19;3.08;;;2.53;;
7693;SDS011;3889;48.162;11.510;2023-04-03T12:33:56;3.28;;;2.70;;
7693;SDS011;3889;48.162;11.510;2023-04-03T12:36:44;2.70;;;2.25;;
7693;SDS011;3889;48.162;11.510;2023-04-03T12:39:25;3.08;;;2.45;;
7693;SDS011;3889;48.162;11.510;2023-04-03T12:42:17;2.70;;;2.28;;
7693;SDS011;3889;48.162;11.510;2023-04-03T12:45:03;4.03;;;2.60;;
7693;SDS011;3889;48.162;11.510;2023-04-03T12:47:40;3.17;;;2.30;;
7693;SDS011;3889;48.162;11.510;2023-04-03T12:50:18;3.47;;;2.38;;
7693;SDS011;3889;48.162;11.510;2023-04-03T12:52:51;2.78;;;2.33;;
7693;SDS011;3889;48.162;11.510;2023-04-03T12:55:23;2.83;;;2.20;;
7693;SDS011;3889;48.162;11.510;2023-04-03T12:57:53;2.80;;;2.50;;
7693;SDS011;3889;48.162;11.510;2023-04-03T13:00:25;2.70;;;2.30;;
7693;SDS011;3889;48.162;11.510;2023-04-03T13:02:56;2.92;;;2.20;;
7693;SDS011;3889;48.162;11.510;2023-04-03T13:05:25;3.40;;;2.10;;
7693;SDS011;3889;48.162;11.510;2023-04-03T13:07:54;2.53;;;2.20;;
7693;SDS011;3889;48.162;11.510;2023-04-03T13:10:26;2.50;;;2.25;;
7693;SDS011;3889;48.162;11.510;2023-04-03T13:12:56;2.42;;;2.22;;
7693;SDS011;3889;48.162;11.510;2023-04-03T13:15:26;2.50;;;2.30;;
7693;SDS011;3889;48.162;11.510;2023-04-03T13:17:56;2.28;;;2.00;;
7693;SDS011;3889;48.162;11.510;2023-04-03T13:20:25;4.63;;;2.90;;
7693;SDS011;3889;48.162;11.510;2023-04-03T13:22:56;2.45;;;2.22;;
7693;SDS011;3889;48.162;11.510;2023-04-03T13:25:27;3.80;;;2.47;;
7693;SDS011;3889;48.162;11.510;2023-04-03T13:28:00;2.85;;;2.25;;
7693;SDS011;3889;48.162;11.510;2023-04-03T13:30:40;4.10;;;2.50;;
7693;SDS011;3889;48.162;11.510;2023-04-03T13:33:22;2.40;;;2.20;;
7693;SDS011;3889;48.162;11.510;2023-04-03T13:35:54;2.67;;;2.30;;
7693;SDS011;3889;48.162;11.510;2023-04-03T13:38:24;3.30;;;2.67;;
7693;SDS011;3889;48.162;11.510;2023-04-03T13:40:54;3.30;;;2.45;;
7693;SDS011;3889;48.162;11.510;2023-04-03T13:43:25;2.92;;;2.60;;
7693;SDS011;3889;48.162;11.510;2023-04-03T13:46:02;4.80;;;2.78;;
7693;SDS011;3889;48.162;11.510;2023-04-03T13:48:39;2.70;;;2.25;;
7693;SDS011;3889;48.162;11.510;2023-04-03T13:51:17;3.58;;;2.10;;
7693;SDS011;3889;48.162;11.510;2023-04-03T13:53:48;3.20;;;2.20;;
7693;SDS011;3889;48.162;11.510;2023-04-03T13:56:19;4.35;;;2.53;;
7693;SDS011;3889;48.162;11.510;2023-04-03T13:58:59;3.03;;;2.20;;
7693;SDS011;3889;48.162;11.510;2023-04-03T14:01:34;3.13;;;2.00;;
7693;SDS011;3889;48.162;11.510;2023-04-03T14:04:13;3.25;;;2.33;;
7693;SDS011;3889;48.162;11.510;2023-04-03T14:06:44;2.80;;;2.40;;
7693;SDS011;3889;48.162;11.510;2023-04-03T14:09:12;3.72;;;2.70;;
7693;SDS011;3889;48.162;11.510;2023-04-03T14:11:41;3.78;;;2.33;;
7693;SDS011;3889;48.162;11.510;2023-04-03T14:14:13;3.10;;;2.67;;
7693;SDS011;3889;48.162;11.510;2023-04-03T14:16:43;3.42;;;2.75;;
7693;SDS011;3889;48.162;11.510;2023-04-03T14:19:21;2.53;;;2.25;;
7693;SDS011;3889;48.162;11.510;2023-04-03T14:21:50;3.43;;;2.60;;
7693;SDS011;3889;48.162;11.510;2023-04-03T14:24:19;3.17;;;2.30;;
7693;SDS011;3889;48.162;11.510;2023-04-03T14:26:48;3.17;;;2.10;;
7693;SDS011;3889;48.162;11.510;2023-04-03T14:29:19;2.88;;;2.30;;
7693;SDS011;3889;48.162;11.510;2023-04-03T14:31:48;2.45;;;2.25;;
7693;SDS011;3889;48.162;11.510;2023-04-03T14:34:25;4.37;;;2.70;;
7693;SDS011;3889;48.162;11.510;2023-04-03T14:36:53;2.55;;;2.00;;
7693;SDS011;3889;48.162;11.510;2023-04-03T14:39:21;3.22;;;2.42;;
7693;SDS011;3889;48.162;11.510;2023-04-03T14:41:49;2.20;;;2.00;;
7693;SDS011;3889;48.162;11.510;2023-04-03T14:44:18;2.55;;;2.28;;
7693;SDS011;3889;48.162;11.510;2023-04-03T14:46:46;4.20;;;2.10;;
7693;SDS011;3889;48.162;11.510;2023-04-03T14:49:24;2.83;;;2.40;;
7693;SDS011;3889;48.162;11.510;2023-04-03T14:51:55;3.80;;;2.53;;
7693;SDS011;3889;48.162;11.510;2023-04-03T14:54:24;2.90;;;2.00;;
7693;SDS011;3889;48.162;11.510;2023-04-03T14:56:54;4.75;;;2.45;;
7693;SDS011;3889;48.162;11.510;2023-04-03T14:59:24;3.70;;;1.90;;
7693;SDS011;3889;48.162;11.510;2023-04-03T15:01:53;2.88;;;2.35;;
7693;SDS011;3889;48.162;11.510;2023-04-03T15:04:21;2.77;;;1.90;;
7693;SDS011;3889;48.162;11.510;2023-04-03T15:06:49;3.30;;;1.90;;
7693;SDS011;3889;48.162;11.510;2023-04-03T15:09:20;2.10;;;1.90;;
7693;SDS011;3889;48.162;11.510;2023-04-03T15:11:50;2.90;;;2.20;;
7693;SDS011;3889;48.162;11.510;2023-04-03T15:14:18;3.30;;;2.15;;
7693;SDS011;3889;48.162;11.510;2023-04-03T15:17:03;2.42;;;2.03;;
7693;SDS011;3889;48.162;11.510;2023-04-03T15:19:32;2.70;;;2.15;;
7693;SDS011;3889;48.162;11.510;2023-04-03T15:22:04;2.45;;;1.90;;
7693;SDS011;3889;48.162;11.510;2023-04-03T15:24:32;3.63;;;2.10;;
7693;SDS011;3889;48.162;11.510;2023-04-03T15:27:00;3.70;;;2.10;;
7693;SDS011;3889;48.162;11.510;2023-04-03T15:29:28;3.70;;;1.80;;
7693;SDS011;3889;48.162;11.510;2023-04-03T15:31:56;2.47;;;1.95;;
7693;SDS011;3889;48.162;11.510;2023-04-03T15:34:25;4.05;;;2.00;;
7693;SDS011;3889;48.162;11.510;2023-04-03T15:36:53;3.83;;;2.20;;
7693;SDS011;3889;48.162;11.510;2023-04-03T15:39:21;2.28;;;2.08;;
7693;SDS011;3889;48.162;11.510;2023-04-03T15:41:50;2.28;;;1.90;;